createdAt,value
2019-04-21T00:02:21.440Z,11.50
2019-04-21T00:04:56.908Z,11.90
2019-04-21T00:07:31.374Z,11.57
2019-04-21T00:09:59.005Z,14.33
2019-04-21T00:12:26.947Z,12.30
2019-04-21T00:14:46.056Z,10.17
2019-04-21T00:17:10.671Z,10.17
2019-04-21T00:19:49.745Z,11.10
2019-04-21T00:22:33.166Z,10.50
2019-04-21T00:24:58.379Z,11.50
2019-04-21T00:27:31.018Z,10.90
2019-04-21T00:29:58.032Z,9.47
2019-04-21T00:32:21.838Z,10.80
2019-04-21T00:34:42.030Z,11.03
2019-04-21T00:37:15.233Z,11.00
2019-04-21T00:40:01.924Z,12.70
2019-04-21T00:42:19.483Z,11.97
2019-04-21T00:44:44.293Z,11.43
2019-04-21T00:47:23.236Z,10.77
2019-04-21T00:49:53.880Z,11.30
2019-04-21T00:52:39.892Z,12.00
2019-04-21T00:55:10.126Z,11.30
2019-04-21T00:57:27.733Z,11.93
2019-04-21T00:59:52.182Z,11.10
2019-04-21T01:02:17.920Z,11.27
2019-04-21T01:04:53.889Z,11.50
2019-04-21T01:07:12.584Z,12.33
2019-04-21T01:09:39.863Z,10.83
2019-04-21T01:12:12.260Z,11.43
2019-04-21T01:14:50.266Z,10.77
2019-04-21T01:17:14.584Z,10.47
2019-04-21T01:19:33.436Z,10.90
2019-04-21T01:21:44.045Z,11.23
2019-04-21T01:24:19.281Z,11.27
2019-04-21T01:26:47.079Z,12.90
2019-04-21T01:29:19.547Z,13.33
2019-04-21T01:32:02.068Z,11.97
2019-04-21T01:34:24.907Z,12.37
2019-04-21T01:36:51.368Z,11.63
2019-04-21T01:39:22.521Z,12.00
2019-04-21T01:41:52.587Z,10.97
2019-04-21T01:44:25.066Z,10.20
2019-04-21T01:46:42.802Z,11.40
2019-04-21T01:49:09.211Z,12.87
2019-04-21T01:51:59.716Z,11.70
2019-04-21T01:54:14.743Z,12.10
2019-04-21T01:56:46.583Z,12.03
2019-04-21T01:59:03.780Z,11.90
2019-04-21T02:01:42.470Z,11.53
2019-04-21T02:04:22.783Z,11.50
2019-04-21T02:06:39.107Z,11.47
2019-04-21T02:09:06.255Z,12.03
2019-04-21T02:11:35.760Z,13.83
2019-04-21T02:14:25.539Z,11.70
2019-04-21T02:16:34.592Z,12.33
2019-04-21T02:18:58.448Z,11.93
2019-04-21T02:21:22.139Z,12.30
2019-04-21T02:24:04.766Z,13.40
2019-04-21T02:26:28.459Z,12.63
2019-04-21T02:34:00.286Z,15.50
2019-04-21T02:44:02.555Z,13.67
2019-04-21T02:46:31.319Z,12.77
2019-04-21T02:48:56.465Z,13.80
2019-04-21T02:51:19.363Z,12.97
2019-04-21T02:54:10.460Z,11.77
2019-04-21T02:56:20.402Z,11.53
2019-04-21T03:03:54.424Z,13.03
2019-04-21T03:06:24.823Z,12.90
2019-04-21T03:08:59.057Z,12.47
2019-04-21T03:11:14.462Z,13.17
2019-04-21T03:13:56.803Z,14.67
2019-04-21T03:23:46.767Z,12.83
2019-04-21T03:38:37.747Z,12.47
2019-04-21T03:41:01.009Z,15.40
2019-04-21T03:46:12.453Z,17.83
2019-04-21T03:50:50.888Z,14.87
2019-04-21T03:53:18.586Z,14.93
2019-04-21T04:01:02.830Z,16.07
2019-04-21T04:06:13.368Z,13.90
2019-04-21T04:13:52.134Z,15.10
2019-04-21T04:16:11.408Z,15.37
2019-04-21T04:18:51.179Z,13.93
2019-04-21T04:23:41.582Z,17.13
2019-04-21T04:25:57.696Z,17.37
2019-04-21T04:28:40.610Z,15.13
2019-04-21T04:30:52.013Z,15.73
2019-04-21T04:33:39.259Z,15.87
2019-04-21T04:36:08.296Z,14.57
2019-04-21T04:40:55.554Z,16.87
2019-04-21T04:48:24.134Z,21.20
2019-04-21T04:53:25.842Z,19.67
2019-04-21T04:58:18.023Z,16.43
2019-04-21T05:03:14.373Z,16.30
2019-04-21T05:06:23.758Z,18.60
2019-04-21T05:08:56.366Z,16.43
2019-04-21T05:11:10.059Z,15.80
2019-04-21T05:13:35.145Z,17.87
2019-04-21T05:16:01.562Z,18.27
2019-04-21T05:18:34.886Z,20.47
2019-04-21T05:21:03.578Z,23.40
2019-04-21T05:23:18.398Z,23.87
2019-04-21T05:25:37.789Z,21.57
2019-04-21T05:28:06.354Z,15.70
2019-04-21T05:30:50.223Z,14.40
2019-04-21T05:33:34.445Z,13.30
2019-04-21T05:36:14.270Z,14.03
2019-04-21T05:38:43.590Z,13.03
2019-04-21T05:41:06.309Z,14.83
2019-04-21T05:43:39.211Z,17.03
2019-04-21T05:46:13.749Z,13.20
2019-04-21T05:48:39.215Z,15.23
2019-04-21T05:51:03.572Z,13.07
2019-04-21T05:53:36.180Z,18.57
2019-04-21T05:56:12.495Z,12.27
2019-04-21T05:58:36.657Z,13.60
2019-04-21T06:01:23.806Z,11.60
2019-04-21T06:03:44.537Z,12.17
2019-04-21T06:06:19.016Z,12.33
2019-04-21T06:08:38.958Z,12.10
2019-04-21T06:11:07.246Z,13.10
2019-04-21T06:13:42.765Z,12.47
2019-04-21T06:16:05.951Z,11.53
2019-04-21T06:18:35.351Z,14.63
2019-04-21T06:21:01.389Z,12.07
2019-04-21T06:23:27.326Z,10.97
2019-04-21T06:26:12.217Z,11.13
2019-04-21T06:28:30.598Z,10.60
2019-04-21T06:31:01.513Z,9.53
2019-04-21T06:33:22.122Z,9.83
2019-04-21T06:38:54.241Z,11.17
2019-04-21T06:41:13.079Z,10.53
2019-04-21T06:46:11.052Z,8.33
2019-04-21T06:48:40.961Z,8.40
2019-04-21T06:51:09.372Z,7.37
2019-04-21T06:53:39.746Z,7.37
2019-04-21T06:56:00.019Z,6.67
2019-04-21T06:58:26.320Z,5.90
2019-04-21T07:00:55.957Z,6.40
2019-04-21T07:03:44.002Z,6.77
2019-04-21T07:05:56.105Z,6.23
2019-04-21T07:10:52.048Z,6.27
2019-04-21T07:13:19.150Z,5.75
2019-04-21T07:16:00.434Z,5.75
2019-04-21T07:18:10.960Z,5.22
2019-04-21T07:20:44.983Z,4.75
2019-04-21T07:23:20.490Z,5.35
2019-04-21T07:25:38.510Z,5.35
2019-04-21T07:28:02.992Z,6.08
2019-04-21T07:30:35.168Z,7.50
2019-04-21T07:33:24.054Z,5.55
2019-04-21T07:35:31.837Z,5.17
2019-04-21T07:38:00.896Z,5.00
2019-04-21T07:40:24.810Z,5.30
2019-04-21T07:42:51.435Z,5.20
2019-04-21T07:45:22.495Z,5.97
2019-04-21T07:47:55.191Z,5.80
2019-04-21T07:50:33.165Z,5.45
2019-04-21T07:53:08.444Z,5.00
2019-04-21T07:57:57.226Z,4.67
2019-04-21T08:03:05.864Z,4.58
2019-04-21T08:05:24.884Z,6.42
2019-04-21T08:07:56.048Z,4.60
2019-04-21T08:10:22.966Z,4.30
2019-04-21T08:12:47.753Z,3.72
2019-04-21T08:15:27.605Z,2.98
2019-04-21T08:17:48.039Z,5.10
2019-04-21T08:20:13.951Z,5.72
2019-04-21T08:22:46.774Z,4.15
2019-04-21T08:25:14.883Z,4.12
2019-04-21T08:27:50.630Z,3.85
2019-04-21T08:30:14.396Z,3.60
2019-04-21T08:32:51.748Z,4.03
2019-04-21T08:35:35.810Z,4.00
2019-04-21T08:37:31.329Z,4.15
2019-04-21T08:42:35.090Z,3.83
2019-04-21T08:45:02.311Z,4.12
2019-04-21T08:47:28.487Z,4.78
2019-04-21T08:49:55.883Z,4.53
2019-04-21T08:52:42.744Z,4.53
2019-04-21T08:54:56.028Z,4.40
2019-04-21T08:57:35.716Z,4.58
2019-04-21T09:00:04.997Z,4.50
2019-04-21T09:02:35.270Z,3.87
2019-04-21T09:04:59.236Z,4.42
2019-04-21T09:09:52.954Z,4.22
2019-04-21T09:12:22.592Z,4.70
2019-04-21T09:14:51.265Z,4.87
2019-04-21T09:17:15.291Z,4.33
2019-04-21T09:22:12.835Z,4.08
2019-04-21T09:24:50.179Z,4.37
2019-04-21T09:27:08.527Z,3.95
2019-04-21T09:29:31.215Z,4.03
2019-04-21T09:31:54.487Z,3.67
2019-04-21T09:34:27.107Z,5.30
2019-04-21T09:36:51.589Z,6.45
2019-04-21T09:39:20.104Z,5.45
2019-04-21T09:41:44.893Z,4.00
2019-04-21T09:44:17.166Z,3.65
2019-04-21T09:46:46.595Z,4.10
2019-04-21T09:49:12.121Z,4.62
2019-04-21T09:51:37.167Z,3.52
2019-04-21T09:54:08.801Z,4.35
2019-04-21T09:56:43.660Z,4.25
2019-04-21T09:59:09.164Z,6.08
2019-04-21T10:01:36.806Z,4.35
2019-04-21T10:04:00.216Z,3.67
2019-04-21T10:06:26.042Z,5.58
2019-04-21T10:08:58.661Z,8.68
2019-04-21T10:11:21.363Z,4.58
2019-04-21T10:13:49.017Z,4.67
2019-04-21T10:16:34.296Z,4.95
2019-04-21T10:19:02.568Z,6.80
2019-04-21T10:21:29.418Z,5.35
2019-04-21T10:23:59.857Z,6.62
2019-04-21T10:26:26.480Z,18.40
2019-04-21T10:28:53.038Z,14.78
2019-04-21T10:31:20.664Z,18.87
2019-04-21T10:33:48.412Z,7.62
2019-04-21T10:36:15.235Z,8.25
2019-04-21T10:38:46.457Z,5.03
2019-04-21T10:41:10.130Z,4.33
2019-04-21T10:43:37.515Z,26.23
2019-04-21T10:46:04.480Z,12.53
2019-04-21T10:48:33.799Z,12.98
2019-04-21T10:50:59.190Z,7.30
2019-04-21T10:53:29.088Z,5.08
2019-04-21T10:56:09.774Z,5.85
2019-04-21T10:58:26.598Z,3.35
2019-04-21T11:00:55.699Z,7.87
2019-04-21T11:03:40.999Z,4.85
2019-04-21T11:06:08.708Z,3.35
2019-04-21T11:08:40.678Z,3.42
2019-04-21T11:11:04.215Z,2.90
2019-04-21T11:13:30.849Z,3.60
2019-04-21T11:15:57.386Z,4.62
2019-04-21T11:18:24.068Z,2.80
2019-04-21T11:20:51.177Z,2.98
2019-04-21T11:23:19.694Z,3.37
2019-04-21T11:25:46.220Z,4.80
2019-04-21T11:28:14.311Z,3.87
2019-04-21T11:30:42.338Z,3.75
2019-04-21T11:33:09.099Z,2.92
2019-04-21T11:35:37.099Z,3.33
2019-04-21T11:38:26.616Z,2.50
2019-04-21T11:40:51.768Z,2.70
2019-04-21T11:43:19.746Z,2.50
2019-04-21T11:45:46.384Z,5.60
2019-04-21T11:48:26.430Z,3.52
2019-04-21T11:50:53.193Z,5.85
2019-04-21T11:53:20.938Z,27.07
2019-04-21T11:55:50.172Z,2.30
2019-04-21T11:58:15.995Z,4.58
2019-04-21T12:00:43.581Z,2.95
2019-04-21T12:03:12.393Z,4.30
2019-04-21T12:05:39.402Z,2.70
2019-04-21T12:08:18.962Z,1.82
2019-04-21T12:10:35.490Z,27.32
2019-04-21T12:13:07.027Z,3.15
2019-04-21T12:15:31.519Z,2.08
2019-04-21T12:17:57.856Z,2.30
2019-04-21T12:20:24.455Z,1.95
2019-04-21T12:22:51.097Z,2.60
2019-04-21T12:25:19.431Z,3.02
2019-04-21T12:27:45.969Z,2.10
2019-04-21T12:30:13.889Z,2.50
2019-04-21T12:32:46.301Z,2.98
2019-04-21T12:35:15.660Z,2.58
2019-04-21T12:37:42.795Z,2.80
2019-04-21T12:40:10.528Z,2.77
2019-04-21T12:42:40.452Z,4.75
2019-04-21T12:45:07.616Z,6.35
2019-04-21T12:47:35.147Z,2.83
2019-04-21T12:50:03.052Z,3.67
2019-04-21T12:52:29.920Z,3.05
2019-04-21T12:54:57.512Z,33.63
2019-04-21T12:57:25.404Z,4.65
2019-04-21T12:59:52.920Z,4.40
2019-04-21T13:02:19.885Z,3.20
2019-04-21T13:04:46.419Z,2.87
2019-04-21T13:07:13.298Z,19.92
2019-04-21T13:09:40.180Z,5.58
2019-04-21T13:12:06.923Z,6.03
2019-04-21T13:14:33.766Z,5.17
2019-04-21T13:17:01.360Z,3.33
2019-04-21T13:19:29.283Z,3.22
2019-04-21T13:21:56.085Z,2.90
2019-04-21T13:24:24.031Z,3.12
2019-04-21T13:26:55.945Z,3.08
2019-04-21T13:29:18.752Z,2.33
2019-04-21T13:31:45.210Z,2.70
2019-04-21T13:34:11.669Z,4.40
2019-04-21T13:36:39.289Z,2.47
2019-04-21T13:39:44.673Z,3.67
2019-04-21T13:41:56.756Z,2.30
2019-04-21T13:44:13.282Z,2.70
2019-04-21T13:46:40.898Z,2.27
2019-04-21T13:49:09.527Z,2.43
2019-04-21T13:51:36.138Z,2.72
2019-04-21T13:54:04.040Z,2.47
2019-04-21T13:56:30.530Z,2.50
2019-04-21T13:58:58.104Z,2.10
2019-04-21T14:01:25.582Z,3.05
2019-04-21T14:03:53.455Z,1.77
2019-04-21T14:06:20.369Z,2.50
2019-04-21T14:08:48.417Z,2.53
2019-04-21T14:11:15.568Z,2.70
2019-04-21T14:13:42.579Z,4.67
2019-04-21T14:16:10.040Z,3.53
2019-04-21T14:18:36.701Z,2.10
2019-04-21T14:21:03.321Z,3.10
2019-04-21T14:23:36.036Z,3.10
2019-04-21T14:25:57.901Z,2.57
2019-04-21T14:28:24.251Z,2.13
2019-04-21T14:30:52.446Z,2.13
2019-04-21T14:33:20.332Z,3.67
2019-04-21T14:35:47.139Z,2.10
2019-04-21T14:38:14.421Z,2.00
2019-04-21T14:40:41.952Z,1.98
2019-04-21T14:43:10.051Z,2.27
2019-04-21T14:45:38.775Z,2.33
2019-04-21T14:48:25.201Z,2.35
2019-04-21T14:51:06.533Z,2.03
2019-04-21T14:53:47.816Z,2.13
2019-04-21T14:56:15.396Z,13.17
2019-04-21T14:58:43.211Z,2.60
2019-04-21T15:01:10.387Z,2.40
2019-04-21T15:03:37.562Z,2.83
2019-04-21T15:06:05.470Z,2.70
2019-04-21T15:08:33.258Z,3.50
2019-04-21T15:11:00.977Z,2.23
2019-04-21T15:13:28.071Z,3.40
2019-04-21T15:15:54.570Z,1.90
2019-04-21T15:18:21.082Z,3.03
2019-04-21T15:20:50.290Z,2.60
2019-04-21T15:23:15.898Z,2.57
2019-04-21T15:25:42.335Z,2.33
2019-04-21T15:28:09.531Z,2.23
2019-04-21T15:30:36.568Z,1.87
2019-04-21T15:33:04.424Z,2.33
2019-04-21T15:35:31.129Z,4.10
2019-04-21T15:37:58.064Z,2.30
2019-04-21T15:40:35.200Z,2.63
2019-04-21T15:42:52.793Z,2.07
2019-04-21T15:45:20.827Z,2.60
2019-04-21T15:47:47.651Z,2.10
2019-04-21T15:50:17.301Z,2.73
2019-04-21T15:52:43.509Z,2.60
2019-04-21T15:55:12.655Z,2.20
2019-04-21T15:57:54.340Z,2.40
2019-04-21T16:00:22.893Z,2.60
2019-04-21T16:02:50.697Z,2.40
2019-04-21T16:05:18.808Z,2.33
2019-04-21T16:07:45.841Z,3.07
2019-04-21T16:10:26.459Z,2.43
2019-04-21T16:12:43.283Z,2.67
2019-04-21T16:15:12.384Z,3.07
2019-04-21T16:17:39.355Z,2.70
2019-04-21T16:20:08.076Z,2.73
2019-04-21T16:22:34.919Z,2.87
2019-04-21T16:25:03.343Z,2.47
2019-04-21T16:27:30.183Z,2.50
2019-04-21T16:29:57.650Z,2.93
2019-04-21T16:32:24.100Z,2.17
2019-04-21T16:34:58.077Z,2.60
2019-04-21T16:37:19.478Z,2.77
2019-04-21T16:39:47.390Z,2.87
2019-04-21T16:42:14.249Z,3.53
2019-04-21T16:44:42.971Z,3.27
2019-04-21T16:47:11.668Z,2.73
2019-04-21T16:49:40.167Z,2.77
2019-04-21T16:52:16.293Z,2.73
2019-04-21T16:54:47.680Z,2.80
2019-04-21T16:57:17.642Z,3.07
2019-04-21T16:59:48.606Z,2.67
2019-04-21T17:02:16.627Z,2.73
2019-04-21T17:04:46.516Z,2.97
2019-04-21T17:07:15.101Z,2.97
2019-04-21T17:09:44.418Z,3.33
2019-04-21T17:12:14.208Z,2.63
2019-04-21T17:14:53.559Z,2.80
2019-04-21T17:17:32.408Z,3.50
2019-04-21T17:19:43.840Z,3.47
2019-04-21T17:22:07.951Z,3.57
2019-04-21T17:24:36.448Z,3.23
2019-04-21T17:27:05.359Z,2.67
2019-04-21T17:29:34.576Z,2.30
2019-04-21T17:32:07.423Z,3.03
2019-04-21T17:34:36.086Z,2.80
2019-04-21T17:37:05.546Z,2.87
2019-04-21T17:39:36.535Z,3.17
2019-04-21T17:42:14.151Z,3.07
2019-04-21T17:44:35.251Z,3.03
2019-04-21T17:47:11.671Z,2.90
2019-04-21T17:49:34.886Z,2.57
2019-04-21T17:52:23.766Z,2.80
2019-04-21T17:55:16.790Z,2.80
2019-04-21T17:57:54.435Z,3.20
2019-04-21T18:00:41.438Z,3.73
2019-04-21T18:02:57.360Z,3.53
2019-04-21T18:05:29.426Z,3.03
2019-04-21T18:07:54.771Z,3.43
2019-04-21T18:10:27.328Z,3.53
2019-04-21T18:12:49.148Z,3.60
2019-04-21T18:15:29.307Z,3.87
2019-04-21T18:17:38.597Z,3.43
2019-04-21T18:20:07.914Z,3.30
2019-04-21T18:22:57.216Z,3.07
2019-04-21T18:25:44.445Z,3.20
2019-04-21T18:27:57.058Z,3.47
2019-04-21T18:30:44.527Z,2.70
2019-04-21T18:33:22.872Z,3.40
2019-04-21T18:36:00.048Z,4.30
2019-04-21T18:39:04.094Z,6.10
2019-04-21T18:41:19.568Z,3.50
2019-04-21T18:47:06.927Z,2.97
2019-04-21T18:49:17.518Z,3.60
2019-04-21T18:51:57.097Z,3.37
2019-04-21T18:54:43.527Z,4.83
2019-04-21T18:57:04.390Z,4.57
2019-04-21T18:59:31.055Z,3.50
2019-04-21T19:02:02.174Z,3.47
2019-04-21T19:04:30.057Z,4.70
2019-04-21T19:07:09.347Z,3.53
2019-04-21T19:10:03.625Z,3.10
2019-04-21T19:12:16.468Z,4.17
2019-04-21T19:14:50.839Z,3.93
2019-04-21T19:17:27.148Z,3.40
2019-04-21T19:22:06.286Z,4.87
2019-04-21T19:24:50.619Z,4.57
2019-04-21T19:29:29.199Z,5.20
2019-04-21T19:31:59.440Z,5.00
2019-04-21T19:34:17.404Z,5.13
2019-04-21T19:36:41.502Z,5.37
2019-04-21T19:39:13.481Z,5.13
2019-04-21T19:41:52.176Z,4.87
2019-04-21T19:44:24.696Z,4.43
2019-04-21T19:46:49.250Z,4.50
2019-04-21T19:49:22.752Z,4.70
2019-04-21T19:51:42.849Z,5.30
2019-04-21T19:54:09.048Z,6.67
2019-04-21T19:56:28.020Z,5.33
2019-04-21T19:58:54.969Z,5.13
2019-04-21T20:01:21.471Z,5.27
2019-04-21T20:03:54.134Z,5.93
2019-04-21T20:06:34.407Z,4.47
2019-04-21T20:09:05.003Z,4.80
2019-04-21T20:11:30.585Z,5.17
2019-04-21T20:14:18.385Z,5.80
2019-04-21T20:16:35.966Z,5.40
2019-04-21T20:18:44.142Z,4.90
2019-04-21T20:21:08.102Z,4.87
2019-04-21T20:23:38.015Z,5.27
2019-04-21T20:26:08.120Z,5.03
2019-04-21T20:28:45.541Z,5.03
2019-04-21T20:31:18.880Z,6.50
2019-04-21T20:33:55.216Z,6.40
2019-04-21T20:36:23.818Z,7.13
2019-04-21T20:38:40.457Z,7.00
2019-04-21T20:41:02.228Z,7.37
2019-04-21T20:43:44.535Z,6.80
2019-04-21T20:46:07.986Z,6.17
2019-04-21T20:48:41.475Z,6.50
2019-04-21T20:51:06.103Z,6.97
2019-04-21T20:53:34.251Z,6.97
2019-04-21T20:56:00.592Z,9.30
2019-04-21T20:58:28.488Z,8.53
2019-04-21T21:03:28.858Z,7.90
2019-04-21T21:05:53.204Z,8.83
2019-04-21T21:08:30.880Z,9.17
2019-04-21T21:10:53.240Z,9.47
2019-04-21T21:13:32.295Z,9.53
2019-04-21T21:16:05.378Z,9.00
2019-04-21T21:18:41.037Z,9.43
2019-04-21T21:20:50.666Z,9.30
2019-04-21T21:23:11.902Z,10.13
2019-04-21T21:25:50.465Z,10.03
2019-04-21T21:28:04.402Z,9.67
2019-04-21T21:30:34.621Z,8.90
2019-04-21T21:33:15.227Z,9.57
2019-04-21T21:35:35.937Z,10.70
2019-04-21T21:38:08.363Z,10.77
2019-04-21T21:40:32.556Z,10.13
2019-04-21T21:42:47.543Z,11.07
2019-04-21T21:45:18.308Z,11.43
2019-04-21T21:48:01.021Z,11.10
2019-04-21T21:50:23.338Z,10.83
2019-04-21T21:52:51.193Z,10.83
2019-04-21T21:55:09.820Z,10.53
2019-04-21T21:57:44.358Z,11.23
2019-04-21T22:00:08.565Z,10.97
2019-04-21T22:02:45.521Z,9.73
2019-04-21T22:05:12.175Z,10.80
2019-04-21T22:07:35.579Z,12.43
2019-04-21T22:10:06.449Z,10.37
2019-04-21T22:12:43.427Z,14.27
2019-04-21T22:15:10.096Z,12.03
2019-04-21T22:17:46.328Z,10.47
2019-04-21T22:20:13.441Z,10.27
2019-04-21T22:22:38.916Z,10.20
2019-04-21T22:25:05.950Z,10.53
2019-04-21T22:27:23.326Z,10.30
2019-04-21T22:29:56.510Z,10.37
2019-04-21T22:32:24.524Z,11.13
2019-04-21T22:34:52.392Z,10.30
2019-04-21T22:37:30.262Z,9.40
2019-04-21T22:39:58.865Z,10.87
2019-04-21T22:42:17.964Z,10.73
2019-04-21T22:44:40.348Z,11.23
2019-04-21T22:47:14.176Z,11.37
2019-04-21T22:49:36.816Z,12.27
2019-04-21T22:52:11.114Z,12.03
2019-04-21T22:54:36.071Z,11.40
2019-04-21T22:57:07.313Z,11.10
2019-04-21T22:59:28.634Z,11.40
2019-04-21T23:01:57.481Z,12.57
2019-04-21T23:04:25.476Z,10.90
2019-04-21T23:06:59.242Z,12.30
2019-04-21T23:09:20.584Z,12.07
2019-04-21T23:11:50.873Z,11.97
2019-04-21T23:14:17.101Z,11.27
2019-04-21T23:16:45.587Z,11.70
2019-04-21T23:19:28.070Z,11.70
2019-04-21T23:21:58.904Z,13.63
2019-04-21T23:24:31.771Z,12.27
2019-04-21T23:26:49.343Z,13.37
2019-04-21T23:29:25.777Z,15.70
2019-04-21T23:31:52.142Z,15.23
2019-04-21T23:34:02.285Z,15.93
2019-04-21T23:36:32.185Z,17.30
2019-04-21T23:38:58.493Z,13.97
2019-04-21T23:41:26.070Z,12.13
2019-04-21T23:43:59.176Z,12.43
2019-04-21T23:46:26.803Z,12.80
2019-04-21T23:49:07.140Z,13.77
2019-04-21T23:51:33.313Z,13.80
2019-04-21T23:53:47.098Z,12.43
2019-04-21T23:56:23.162Z,15.43
2019-04-21T23:58:44.876Z,13.87
